Time;durP1;ratioP1;P1;durP2;ratioP2;P2;SDS_P1;SDS_P2;PMS_P1;PMS_P2;Temp;Humidity;BMP_temperature;BMP_pressure;BME280_temperature;BME280_humidity;BME280_pressure;Samples;Min_cycle;Max_cycle;Signal;HPM_P1;HPM_P2
2022/01/30 00:00:42;;;;;;;41.50;16.70;;;;;;;-0.45;nan;100979.66;5029185;28;20096;-70
2022/01/30 00:03:07;;;;;;;42.63;17.05;;;;;;;-0.19;nan;101024.81;5026664;28;20048;-68
2022/01/30 00:05:34;;;;;;;36.08;16.75;;;;;;;-0.16;nan;101045.25;5028287;28;20108;-68
2022/01/30 00:08:00;;;;;;;36.58;17.77;;;;;;;-0.30;nan;101024.03;5028520;28;20032;-68
2022/01/30 00:10:26;;;;;;;38.40;17.70;;;;;;;-0.22;nan;101038.84;5028246;28;20049;-68
2022/01/30 00:12:57;;;;;;;35.42;17.17;;;;;;;-0.26;nan;101033.16;5019191;28;20577;-68
2022/01/30 00:15:37;;;;;;;39.40;17.33;;;;;;;-0.16;nan;101042.66;5022519;28;20116;-70
2022/01/30 00:20:40;;;;;;;40.88;18.45;;;;;;;-0.25;nan;101008.06;5028160;28;20402;-70
2022/01/30 00:23:17;;;;;;;35.85;18.15;;;;;;;-0.26;nan;101001.28;5028385;28;20045;-70
2022/01/30 00:25:51;;;;;;;41.35;17.42;;;;;;;-0.15;nan;101011.44;5026604;28;20091;-70
2022/01/30 00:28:19;;;;;;;44.28;18.52;;;;;;;-0.12;nan;100987.91;5028742;28;20029;-70
2022/01/30 00:30:45;;;;;;;38.95;17.85;;;;;;;-0.11;nan;100965.41;5028589;28;20033;-72
2022/01/30 00:33:11;;;;;;;40.13;19.05;;;;;;;-0.27;nan;100933.16;5028056;28;20052;-71
2022/01/30 00:35:36;;;;;;;45.80;20.10;;;;;;;-0.21;nan;100931.78;5028704;28;20037;-71
2022/01/30 00:38:02;;;;;;;41.42;19.05;;;;;;;-0.27;nan;100925.38;5010310;28;20072;-70
2022/01/30 00:40:28;;;;;;;39.38;17.30;;;;;;;-0.20;nan;100937.78;5032252;28;20072;-72
2022/01/30 00:42:54;;;;;;;40.97;19.35;;;;;;;-0.23;nan;100939.69;5032551;28;20029;-72
2022/01/30 00:45:19;;;;;;;40.17;18.77;;;;;;;-0.37;nan;100909.09;5014495;28;20120;-68
2022/01/30 00:47:45;;;;;;;39.70;18.77;;;;;;;-0.26;nan;100921.06;5013403;28;20037;-70
2022/01/30 00:50:10;;;;;;;43.92;18.25;;;;;;;-0.24;nan;100929.47;5031985;28;20037;-69
2022/01/30 00:52:36;;;;;;;40.40;17.88;;;;;;;-0.32;nan;100904.31;5013963;28;20053;-70
2022/01/30 00:55:03;;;;;;;41.22;18.80;;;;;;;-0.22;nan;100904.25;5031838;28;20095;-71
2022/01/30 00:57:29;;;;;;;40.40;17.75;;;;;;;-0.22;nan;100914.63;5013652;28;20041;-70
2022/01/30 00:59:54;;;;;;;40.95;18.65;;;;;;;-0.26;nan;100895.19;5032077;28;20026;-73
2022/01/30 01:02:20;;;;;;;38.90;18.15;;;;;;;-0.20;nan;100897.19;5009810;28;20076;-69
2022/01/30 01:04:46;;;;;;;37.85;17.25;;;;;;;-0.20;nan;100894.59;5013618;28;20037;-70
2022/01/30 01:07:19;;;;;;;36.47;16.77;;;;;;;-0.25;nan;100892.44;5031150;28;20041;-72
2022/01/30 01:09:56;;;;;;;38.08;17.55;;;;;;;-0.27;nan;100896.94;5014028;28;20407;-72
2022/01/30 01:23:30;;;;;;;32.50;16.77;;;;;;;-0.35;nan;100842.50;5031714;28;20072;-70
2022/01/30 01:25:57;;;;;;;36.83;15.77;;;;;;;-0.30;nan;100848.06;5029183;28;20348;-68
2022/01/30 01:28:24;;;;;;;33.97;15.43;;;;;;;-0.19;nan;100864.34;5026230;28;20040;-70
2022/01/30 01:30:49;;;;;;;36.63;16.65;;;;;;;-0.24;nan;100857.00;5033693;28;20029;-70
2022/01/30 01:33:15;;;;;;;34.60;15.45;;;;;;;-0.18;nan;100855.63;5022049;28;20041;-70
2022/01/30 01:35:41;;;;;;;35.55;17.08;;;;;;;-0.18;nan;100840.91;5033127;28;20038;-72
2022/01/30 01:38:12;;;;;;;37.60;15.90;;;;;;;-0.17;nan;100841.72;5032963;28;20029;-71
2022/01/30 01:40:50;;;;;;;32.47;15.57;;;;;;;-0.18;nan;100830.56;5033218;28;20030;-73
2022/01/30 01:43:17;;;;;;;34.15;14.73;;;;;;;-0.17;nan;100827.00;5025216;28;20041;-72
2022/01/30 01:45:42;;;;;;;36.17;15.82;;;;;;;-0.22;nan;100824.88;5030993;28;20067;-72
2022/01/30 01:48:12;;;;;;;33.75;15.65;;;;;;;-0.17;nan;100829.59;5031321;28;20036;-71
2022/01/30 01:50:51;;;;;;;35.25;14.98;;;;;;;-0.16;nan;100835.59;5013612;28;20065;-73
2022/01/30 01:53:19;;;;;;;38.33;16.48;;;;;;;-0.12;nan;100831.75;5026880;28;20672;-69
2022/01/30 01:55:44;;;;;;;35.95;15.80;;;;;;;-0.17;nan;100813.25;5031021;28;20049;-71
2022/01/30 01:58:10;;;;;;;32.42;15.52;;;;;;;-0.12;nan;100800.69;5031310;28;20029;-71
2022/01/30 02:00:37;;;;;;;33.13;16.33;;;;;;;-0.21;nan;100789.44;5030246;28;20490;-71
2022/01/30 02:03:04;;;;;;;34.08;16.25;;;;;;;-0.15;nan;100794.03;5030292;28;20049;-69
2022/01/30 02:05:32;;;;;;;31.55;14.70;;;;;;;-0.23;nan;100768.88;5030474;28;20037;-70
2022/01/30 02:08:24;;;;;;;35.30;15.38;;;;;;;-0.24;nan;100776.78;5030764;28;20115;-70
2022/01/30 02:10:54;;;;;;;30.38;14.57;;;;;;;-0.12;nan;100798.09;5031435;28;20372;-71
2022/01/30 02:24:45;;;;;;;36.55;15.02;;;;;;;-0.19;nan;100766.00;5030473;28;20033;-71
2022/01/30 02:27:18;;;;;;;33.22;14.15;;;;;;;-0.11;nan;100784.22;5014267;28;20034;-73
2022/01/30 02:29:43;;;;;;;35.33;15.07;;;;;;;-0.11;nan;100771.28;5027611;28;20513;-72
2022/01/30 02:32:09;;;;;;;31.63;14.55;;;;;;;-0.15;nan;100762.97;5030859;28;20074;-71
2022/01/30 02:34:34;;;;;;;30.20;14.93;;;;;;;-0.24;nan;100738.81;5011610;28;20128;-70
2022/01/30 02:37:00;;;;;;;30.98;14.40;;;;;;;-0.37;nan;100709.84;5011494;28;20064;-69
2022/01/30 02:39:26;;;;;;;35.22;15.38;;;;;;;-0.16;nan;100745.03;5029578;28;20433;-68
2022/01/30 02:41:52;;;;;;;34.00;14.75;;;;;;;-0.11;nan;100756.56;5027265;28;20068;-70
2022/01/30 02:44:42;;;;;;;34.33;15.40;;;;;;;-0.27;nan;100728.72;5029213;28;20568;-69
2022/01/30 02:47:20;;;;;;;32.00;14.48;;;;;;;-0.17;nan;100738.19;5028605;28;20073;-67
2022/01/30 02:50:07;;;;;;;28.50;14.73;;;;;;;-0.25;nan;100713.84;5030201;28;20491;-69
2022/01/30 02:52:31;;;;;;;30.33;15.25;;;;;;;-0.14;nan;100719.81;5029313;28;20068;-70
2022/01/30 02:54:57;;;;;;;29.02;14.65;;;;;;;-0.08;nan;100725.19;5011682;28;20045;-70
2022/01/30 02:57:22;;;;;;;29.98;14.32;;;;;;;-0.09;nan;100720.19;5030717;28;20034;-70
2022/01/30 02:59:47;;;;;;;34.30;14.82;;;;;;;-0.06;nan;100720.69;5009845;28;20045;-70
2022/01/30 03:02:13;;;;;;;32.30;15.00;;;;;;;-0.11;nan;100709.16;5029186;28;20446;-70
2022/01/30 03:04:40;;;;;;;31.05;14.45;;;;;;;-0.32;nan;100658.47;5029626;28;20038;-71
2022/01/30 03:07:05;;;;;;;32.58;15.80;;;;;;;-0.16;nan;100668.19;5030372;28;20060;-70
2022/01/30 03:09:31;;;;;;;30.10;14.73;;;;;;;-0.03;nan;100683.31;5028551;28;20116;-70
2022/01/30 03:11:56;;;;;;;34.17;14.57;;;;;;;-0.06;nan;100688.81;5028946;28;20120;-70
2022/01/30 03:14:22;;;;;;;33.80;15.75;;;;;;;-0.34;nan;100642.28;5028921;28;20033;-70
2022/01/30 03:16:47;;;;;;;34.35;15.07;;;;;;;-0.09;nan;100666.63;5009363;28;20129;-70
2022/01/30 03:19:13;;;;;;;37.35;16.23;;;;;;;-0.13;nan;100656.72;5029041;28;20030;-70
2022/01/30 03:21:38;;;;;;;31.85;15.82;;;;;;;-0.14;nan;100668.84;5029262;28;20033;-69
2022/01/30 03:24:04;;;;;;;32.05;15.60;;;;;;;-0.05;nan;100674.88;5028578;28;20580;-70
2022/01/30 03:26:36;;;;;;;34.67;15.70;;;;;;;-0.14;nan;100647.34;5029050;28;20388;-70
2022/01/30 03:29:05;;;;;;;32.70;14.80;;;;;;;-0.15;nan;100645.69;5029295;28;20029;-69
2022/01/30 03:31:31;;;;;;;33.25;15.88;;;;;;;-0.28;nan;100623.59;5033624;28;20029;-70
2022/01/30 03:33:56;;;;;;;35.85;15.93;;;;;;;-0.11;nan;100647.03;5029386;28;20082;-69
2022/01/30 03:36:21;;;;;;;34.75;17.10;;;;;;;-0.20;nan;100604.72;5028923;28;20124;-70
2022/01/30 03:38:47;;;;;;;31.58;14.73;;;;;;;-0.12;nan;100620.34;5028887;28;20032;-70
2022/01/30 03:41:12;;;;;;;39.75;16.17;;;;;;;-0.12;nan;100620.34;5029355;28;20075;-71
2022/01/30 03:43:37;;;;;;;38.38;16.15;;;;;;;-0.09;nan;100622.63;5028490;28;20037;-70
2022/01/30 03:46:04;;;;;;;40.42;16.23;;;;;;;-0.10;nan;100605.44;5029220;28;20104;-70
2022/01/30 03:48:29;;;;;;;29.65;15.45;;;;;;;-0.10;nan;100610.63;5011138;28;20477;-71
2022/01/30 03:50:54;;;;;;;31.52;15.13;;;;;;;-0.19;nan;100596.03;5028694;28;20053;-71
2022/01/30 03:53:20;;;;;;;32.65;15.13;;;;;;;-0.14;nan;100595.56;5028194;28;20037;-71
2022/01/30 03:55:45;;;;;;;35.80;15.80;;;;;;;-0.08;nan;100602.72;5028396;28;20061;-70
2022/01/30 03:58:10;;;;;;;39.75;15.68;;;;;;;-0.13;nan;100576.47;5029051;28;20199;-71
2022/01/30 04:00:36;;;;;;;30.98;14.48;;;;;;;-0.17;nan;100569.97;5028453;28;20088;-71
2022/01/30 04:03:02;;;;;;;30.30;15.13;;;;;;;-0.05;nan;100584.28;5011112;28;20036;-71
2022/01/30 04:05:27;;;;;;;31.77;14.90;;;;;;;-0.07;nan;100581.88;5024570;28;20491;-71
2022/01/30 04:07:54;;;;;;;33.80;16.45;;;;;;;-0.07;nan;100602.59;5028748;28;20120;-72
2022/01/30 04:10:19;;;;;;;32.00;15.15;;;;;;;-0.11;nan;100575.38;5029085;28;20136;-71
2022/01/30 04:12:45;;;;;;;35.17;15.43;;;;;;;-0.03;nan;100579.78;5027978;28;20125;-71
2022/01/30 04:15:11;;;;;;;36.20;15.27;;;;;;;-0.05;nan;100581.69;4999135;28;20062;-72
2022/01/30 04:17:37;;;;;;;34.13;16.85;;;;;;;-0.15;nan;100555.91;5016072;28;20433;-70
2022/01/30 04:20:03;;;;;;;35.33;15.93;;;;;;;-0.06;nan;100575.72;5032364;28;20033;-72
2022/01/30 04:22:28;;;;;;;36.78;14.93;;;;;;;-0.08;nan;100566.47;5032625;28;20029;-71
2022/01/30 04:24:53;;;;;;;33.67;16.25;;;;;;;-0.08;nan;100569.06;5032491;28;20037;-71
2022/01/30 04:27:20;;;;;;;31.38;15.98;;;;;;;-0.12;nan;100560.81;5032667;28;20037;-71
2022/01/30 04:29:46;;;;;;;34.35;15.98;;;;;;;-0.06;nan;100567.16;5032558;28;20056;-71
2022/01/30 04:32:13;;;;;;;32.58;15.63;;;;;;;-0.13;nan;100568.72;5032792;28;20041;-70
2022/01/30 04:34:40;;;;;;;36.90;15.35;;;;;;;-0.08;nan;100563.91;5032891;28;20156;-70
2022/01/30 04:37:15;;;;;;;36.10;16.98;;;;;;;-0.13;nan;100532.47;5014483;28;20777;-69
2022/01/30 05:04:26;;;;;;;38.00;17.35;;;;;;;-0.24;nan;100518.84;4962822;28;20390;-71
2022/01/30 05:09:41;;;;;;;35.25;16.77;;;;;;;-0.28;nan;100496.00;4959802;28;20508;-70
2022/01/30 05:12:08;;;;;;;30.75;15.85;;;;;;;-0.17;nan;100510.44;4971475;28;20472;-71
2022/01/30 05:14:36;;;;;;;30.58;15.80;;;;;;;-0.17;nan;100503.50;4972108;28;20752;-71
2022/01/30 05:17:04;;;;;;;31.23;15.68;;;;;;;-0.14;nan;100507.56;4971219;28;20051;-71
2022/01/30 05:19:30;;;;;;;34.85;16.10;;;;;;;-0.26;nan;100487.13;4984832;28;20787;-69
2022/01/30 05:21:56;;;;;;;32.10;16.10;;;;;;;-0.30;nan;100472.03;4968589;28;20121;-70
2022/01/30 05:24:22;;;;;;;34.65;16.00;;;;;;;-0.19;nan;100481.31;4970252;28;20031;-72
2022/01/30 05:26:48;;;;;;;32.88;15.35;;;;;;;-0.17;nan;100485.38;4971817;28;20046;-70
2022/01/30 05:29:15;;;;;;;28.50;14.93;;;;;;;-0.12;nan;100498.69;4954786;28;20039;-71
2022/01/30 05:31:41;;;;;;;29.48;14.95;;;;;;;-0.25;nan;100470.63;4971330;28;20039;-71
2022/01/30 05:34:07;;;;;;;34.75;14.82;;;;;;;-0.13;nan;100475.53;5005007;28;20525;-70
2022/01/30 05:36:35;;;;;;;31.40;15.15;;;;;;;-0.19;nan;100468.38;5031097;28;20379;-71
2022/01/30 05:39:01;;;;;;;29.95;15.05;;;;;;;-0.24;nan;100461.06;5030781;28;20042;-71
2022/01/30 05:41:27;;;;;;;34.70;16.48;;;;;;;-0.18;nan;100485.53;5030974;28;20044;-71
2022/01/30 05:43:57;;;;;;;36.60;16.30;;;;;;;-0.19;nan;100483.91;5030955;28;20033;-71
2022/01/30 05:46:34;;;;;;;29.98;15.25;;;;;;;-0.31;nan;100479.00;5031097;28;20411;-71
2022/01/30 05:49:03;;;;;;;27.15;13.88;;;;;;;-0.30;nan;100466.88;5031236;28;20025;-70
2022/01/30 05:51:28;;;;;;;31.65;14.35;;;;;;;-0.32;nan;100466.22;5029287;28;20033;-71
2022/01/30 05:53:54;;;;;;;34.85;15.30;;;;;;;-0.39;nan;100455.66;5029859;28;20156;-70
2022/01/30 05:56:19;;;;;;;27.10;13.93;;;;;;;-0.31;nan;100465.22;5012401;28;20037;-70
2022/01/30 05:58:45;;;;;;;32.30;14.40;;;;;;;-0.26;nan;100487.13;5030802;28;20067;-71
2022/01/30 06:01:10;;;;;;;31.45;14.88;;;;;;;-0.25;nan;100480.97;5030414;28;20033;-72
2022/01/30 06:03:35;;;;;;;32.30;14.43;;;;;;;-0.36;nan;100468.31;5030535;28;20088;-70
2022/01/30 06:06:01;;;;;;;27.33;13.98;;;;;;;-0.28;nan;100488.22;5030914;28;20041;-70
2022/01/30 06:11:05;;;;;;;31.52;14.55;;;;;;;-0.31;nan;100507.47;5025745;28;20034;-69
2022/01/30 06:13:31;;;;;;;36.28;15.85;;;;;;;-0.40;nan;100499.78;5030188;28;20040;-69
2022/01/30 06:15:57;;;;;;;32.40;13.82;;;;;;;-0.33;nan;100506.78;5030226;28;20026;-69
2022/01/30 06:18:22;;;;;;;27.92;13.15;;;;;;;-0.43;nan;100487.97;5010432;28;20030;-68
2022/01/30 06:20:48;;;;;;;30.17;13.90;;;;;;;-0.39;nan;100509.16;5030096;28;20041;-71
2022/01/30 06:23:13;;;;;;;30.35;14.35;;;;;;;-0.52;nan;100484.50;5030066;28;20041;-71
2022/01/30 06:25:39;;;;;;;27.38;13.93;;;;;;;-0.51;nan;100488.72;5029647;28;20410;-71
2022/01/30 06:28:04;;;;;;;30.48;14.18;;;;;;;-0.48;nan;100505.69;5028870;28;20721;-71
2022/01/30 06:30:30;;;;;;;28.17;14.00;;;;;;;-0.74;nan;100461.69;5028885;28;20040;-70
2022/01/30 06:32:55;;;;;;;28.85;13.73;;;;;;;-0.50;nan;100490.34;5033039;28;20041;-69
2022/01/30 06:35:20;;;;;;;31.67;14.40;;;;;;;-0.53;nan;100475.09;5028978;28;20025;-71
2022/01/30 06:37:46;;;;;;;25.70;13.63;;;;;;;-0.53;nan;100476.88;5026658;28;20116;-70
2022/01/30 06:40:12;;;;;;;28.13;14.40;;;;;;;-0.82;nan;100435.78;5009807;28;20057;-70
2022/01/30 06:42:38;;;;;;;28.58;14.00;;;;;;;-0.68;nan;100448.97;5028766;28;20045;-70
2022/01/30 06:45:04;;;;;;;28.58;13.57;;;;;;;-0.61;nan;100466.50;5011122;28;20030;-69
2022/01/30 06:47:30;;;;;;;26.45;13.05;;;;;;;-0.65;nan;100456.47;5028302;28;20028;-70
2022/01/30 06:49:56;;;;;;;30.02;14.65;;;;;;;-0.67;nan;100452.38;5027355;28;20025;-70
2022/01/30 06:52:21;;;;;;;30.83;13.95;;;;;;;-0.72;nan;100445.09;5028597;28;20088;-71
2022/01/30 06:54:46;;;;;;;30.20;13.68;;;;;;;-0.59;nan;100470.56;5028344;28;20542;-71
2022/01/30 06:57:12;;;;;;;33.33;13.52;;;;;;;-0.58;nan;100451.47;5029478;28;20056;-70
2022/01/30 06:59:37;;;;;;;27.48;13.55;;;;;;;-0.62;nan;100439.00;5028965;28;20037;-71
2022/01/30 07:02:03;;;;;;;29.27;14.55;;;;;;;-0.70;nan;100443.16;5028747;28;20040;-70
2022/01/30 07:04:29;;;;;;;29.23;13.63;;;;;;;-0.71;nan;100430.38;5027946;28;20053;-71
2022/01/30 07:06:55;;;;;;;27.73;13.82;;;;;;;-0.51;nan;100462.03;5010014;28;20071;-73
2022/01/30 07:09:20;;;;;;;29.60;13.55;;;;;;;-0.39;nan;100467.78;5008720;28;20435;-72
2022/01/30 07:11:46;;;;;;;29.55;13.60;;;;;;;-0.30;nan;100470.25;5027161;28;20037;-71
2022/01/30 07:14:11;;;;;;;30.08;13.95;;;;;;;-0.23;nan;100460.94;5027123;28;20151;-71
2022/01/30 07:16:36;;;;;;;29.08;14.02;;;;;;;-0.45;nan;100415.69;5027968;28;20112;-72
2022/01/30 07:19:02;;;;;;;26.55;13.65;;;;;;;-0.23;nan;100448.00;5028242;28;20038;-71
2022/01/30 07:21:27;;;;;;;30.95;13.10;;;;;;;-0.11;nan;100447.72;5028083;28;20033;-69
2022/01/30 07:23:53;;;;;;;26.30;12.27;;;;;;;0.00;nan;100468.19;5027933;28;20095;-69
2022/01/30 07:26:18;;;;;;;29.67;13.32;;;;;;;0.06;nan;100469.34;5011018;28;20465;-68
2022/01/30 07:28:44;;;;;;;26.10;12.90;;;;;;;0.02;nan;100449.88;5029227;28;20045;-71
2022/01/30 07:31:09;;;;;;;28.67;13.93;;;;;;;0.13;nan;100440.06;5028216;28;20041;-70
2022/01/30 07:33:35;;;;;;;25.88;12.30;;;;;;;0.09;nan;100425.81;5026861;28;20041;-69
2022/01/30 07:36:02;;;;;;;25.65;12.50;;;;;;;0.23;nan;100429.59;5028506;28;20028;-70
2022/01/30 07:38:28;;;;;;;26.73;12.30;;;;;;;0.30;nan;100425.41;5028533;28;20068;-71
2022/01/30 07:40:54;;;;;;;25.17;11.57;;;;;;;0.41;nan;100451.03;5027212;28;20044;-69
2022/01/30 07:43:20;;;;;;;32.60;12.93;;;;;;;0.40;nan;100427.84;5027913;28;20112;-69
2022/01/30 07:45:46;;;;;;;30.85;13.10;;;;;;;0.57;nan;100449.44;5028668;28;20041;-68
2022/01/30 07:48:15;;;;;;;27.10;12.40;;;;;;;0.60;nan;100443.97;5028063;28;20087;-69
2022/01/30 07:50:41;;;;;;;30.30;13.55;;;;;;;0.58;nan;100422.56;5009574;28;20029;-69
2022/01/30 07:53:06;;;;;;;30.05;13.43;;;;;;;0.69;nan;100435.22;5027619;28;20033;-69
2022/01/30 07:55:32;;;;;;;31.52;14.15;;;;;;;0.83;nan;100467.47;5027848;28;20466;-70
2022/01/30 07:57:57;;;;;;;27.80;12.13;;;;;;;0.94;nan;100471.56;5027985;28;20044;-71
2022/01/30 08:00:23;;;;;;;24.50;11.80;;;;;;;1.00;nan;100470.91;5025669;28;20037;-70
2022/01/30 08:02:50;;;;;;;24.67;11.48;;;;;;;1.07;nan;100464.09;5026742;28;20033;-70
2022/01/30 08:05:15;;;;;;;24.70;11.52;;;;;;;0.90;nan;100424.38;5027192;28;20041;-71
2022/01/30 08:07:41;;;;;;;25.42;12.13;;;;;;;1.25;nan;100472.53;5027512;28;20040;-71
2022/01/30 08:10:06;;;;;;;24.10;11.43;;;;;;;1.12;nan;100446.25;5028224;28;20144;-71
2022/01/30 08:12:32;;;;;;;23.38;11.35;;;;;;;1.34;nan;100460.41;5010404;28;20033;-71
2022/01/30 08:14:57;;;;;;;23.77;11.85;;;;;;;1.50;nan;100467.34;5023690;28;20040;-72
2022/01/30 08:17:23;;;;;;;22.95;10.32;;;;;;;1.57;nan;100459.72;5028129;28;20487;-70
2022/01/30 08:19:51;;;;;;;28.48;10.93;;;;;;;1.70;nan;100458.25;5024736;28;20029;-70
2022/01/30 08:22:16;;;;;;;25.95;11.00;;;;;;;1.80;nan;100439.06;5025437;28;20462;-70
2022/01/30 08:24:42;;;;;;;25.33;10.50;;;;;;;1.79;nan;100443.44;5028339;28;20037;-69
2022/01/30 08:27:07;;;;;;;25.38;10.68;;;;;;;1.87;nan;100437.44;5028489;28;20036;-70
2022/01/30 08:29:33;;;;;;;24.30;11.20;;;;;;;1.88;nan;100442.44;5027809;28;20077;-71
2022/01/30 08:31:59;;;;;;;23.45;11.02;;;;;;;1.79;nan;100440.84;5013259;28;20068;-71
2022/01/30 08:34:25;;;;;;;22.63;11.60;;;;;;;1.70;nan;100428.88;5008068;28;20033;-74
2022/01/30 08:36:51;;;;;;;27.25;13.13;;;;;;;1.90;nan;100461.25;5028414;28;20037;-75
2022/01/30 08:39:17;;;;;;;24.88;11.30;;;;;;;1.88;nan;100458.03;5027821;28;20163;-75
2022/01/30 08:41:43;;;;;;;24.80;11.43;;;;;;;1.82;nan;100437.94;5006868;28;20081;-76
2022/01/30 08:44:08;;;;;;;23.77;11.90;;;;;;;1.07;nan;100316.28;5023800;28;20099;-75
2022/01/30 08:46:34;;;;;;;22.95;10.48;;;;;;;2.07;nan;100458.63;5008686;28;20053;-74
2022/01/30 08:48:59;;;;;;;23.67;11.35;;;;;;;2.18;nan;100453.06;5009819;28;20373;-74
2022/01/30 08:51:25;;;;;;;23.20;12.27;;;;;;;2.17;nan;100435.84;5027568;28;20036;-75
2022/01/30 08:53:50;;;;;;;21.70;11.55;;;;;;;2.33;nan;100438.38;5027122;28;20068;-75
2022/01/30 08:56:16;;;;;;;20.30;10.48;;;;;;;2.55;nan;100451.59;5026820;28;20178;-75
2022/01/30 08:58:41;;;;;;;23.88;10.93;;;;;;;2.52;nan;100434.53;5003742;28;20045;-72
2022/01/30 09:01:08;;;;;;;23.35;11.25;;;;;;;2.68;nan;100443.22;5031614;28;20033;-76
2022/01/30 09:03:34;;;;;;;25.05;10.88;;;;;;;2.60;nan;100423.28;5015213;28;20061;-75
2022/01/30 09:06:00;;;;;;;29.80;12.48;;;;;;;2.69;nan;100437.84;5015088;28;20084;-76
2022/01/30 09:08:25;;;;;;;27.15;13.52;;;;;;;2.65;nan;100438.38;5012440;28;20064;-75
2022/01/30 09:10:50;;;;;;;25.30;12.50;;;;;;;2.54;nan;100436.97;5034385;28;20132;-76
2022/01/30 09:13:16;;;;;;;24.40;10.98;;;;;;;2.44;nan;100428.56;5008768;28;20658;-75
2022/01/30 09:15:42;;;;;;;24.88;12.98;;;;;;;2.57;nan;100452.22;5011222;28;20079;-76
2022/01/30 09:18:10;;;;;;;29.63;12.93;;;;;;;2.66;nan;100458.16;5029559;28;20372;-78
2022/01/30 09:20:38;;;;;;;24.60;11.75;;;;;;;2.16;nan;100404.88;5018636;28;20189;-76
2022/01/30 09:23:03;;;;;;;28.15;11.57;;;;;;;2.31;nan;100416.94;5010780;28;21075;-76
2022/01/30 09:25:29;;;;;;;23.55;10.73;;;;;;;2.61;nan;100457.88;5019849;28;20044;-76
2022/01/30 09:27:54;;;;;;;27.13;12.43;;;;;;;2.55;nan;100446.38;5028953;28;20029;-76
2022/01/30 09:30:20;;;;;;;31.95;11.95;;;;;;;2.61;nan;100452.69;5013008;28;20060;-76
2022/01/30 09:32:45;;;;;;;25.17;12.10;;;;;;;2.44;nan;100413.81;5015741;28;20041;-77
2022/01/30 09:35:11;;;;;;;28.65;12.63;;;;;;;2.63;nan;100440.31;5029788;28;20033;-74
2022/01/30 09:37:36;;;;;;;30.30;12.07;;;;;;;2.79;nan;100457.63;5012636;28;20041;-77
2022/01/30 09:40:03;;;;;;;24.58;11.90;;;;;;;2.83;nan;100438.91;5012539;28;20029;-78
2022/01/30 09:42:29;;;;;;;27.42;11.43;;;;;;;3.04;nan;100435.69;5030867;28;20180;-79
2022/01/30 09:45:00;;;;;;;24.65;11.25;;;;;;;3.07;nan;100404.09;5031373;28;20033;-78
2022/01/30 09:47:26;;;;;;;25.23;10.38;;;;;;;3.39;nan;100428.22;5030797;28;20033;-77
2022/01/30 09:49:54;;;;;;;22.17;9.32;;;;;;;3.36;nan;100386.94;5030998;28;20091;-77
2022/01/30 09:52:21;;;;;;;21.42;9.40;;;;;;;3.51;nan;100397.34;5012464;28;20072;-74
2022/01/30 09:54:48;;;;;;;22.92;9.15;;;;;;;3.69;nan;100396.97;5011925;28;20084;-75
2022/01/30 09:57:14;;;;;;;17.88;8.52;;;;;;;3.81;nan;100398.97;5012463;28;20069;-75
2022/01/30 09:59:39;;;;;;;19.40;8.57;;;;;;;3.97;nan;100391.94;5029330;28;20164;-75
2022/01/30 10:02:06;;;;;;;16.48;8.43;;;;;;;3.90;nan;100355.38;5031053;28;20124;-74
2022/01/30 10:04:32;;;;;;;20.83;8.57;;;;;;;4.12;nan;100358.03;5011625;28;20034;-78
2022/01/30 10:07:03;;;;;;;18.98;8.38;;;;;;;4.24;nan;100369.63;5020150;28;20125;-77
2022/01/30 10:09:33;;;;;;;18.90;8.57;;;;;;;4.20;nan;100360.56;5034964;28;20534;-76
2022/01/30 10:12:23;;;;;;;17.08;8.02;;;;;;;4.14;nan;100351.69;5035786;28;20033;-77
2022/01/30 10:15:07;;;;;;;23.98;9.10;;;;;;;4.16;nan;100346.25;5016338;28;20079;-77
2022/01/30 10:17:46;;;;;;;20.65;9.63;;;;;;;4.21;nan;100343.91;5013481;28;20044;-77
2022/01/30 10:20:24;;;;;;;16.90;8.63;;;;;;;4.31;nan;100347.03;5030196;28;20055;-77
2022/01/30 10:22:53;;;;;;;19.52;8.65;;;;;;;4.41;nan;100316.25;5033818;28;20076;-76
2022/01/30 10:25:25;;;;;;;20.10;8.63;;;;;;;4.47;nan;100328.53;5010005;28;20372;-77
2022/01/30 10:28:06;;;;;;;18.42;9.18;;;;;;;4.67;nan;100325.31;5010956;28;20041;-76
2022/01/30 10:30:39;;;;;;;18.35;9.57;;;;;;;4.76;nan;100303.31;5028094;28;20045;-75
2022/01/30 10:33:05;;;;;;;22.25;9.27;;;;;;;4.87;nan;100287.13;5027010;28;20242;-75
2022/01/30 10:35:54;;;;;;;18.50;9.02;;;;;;;5.00;nan;100260.31;5009899;28;20128;-76
2022/01/30 10:38:20;;;;;;;;;;;;;;;5.30;nan;100268.72;5029702;28;20029;-75
2022/01/30 10:40:59;;;;;;;15.52;7.28;;;;;;;5.52;nan;100260.78;5011538;28;19920;-75
2022/01/30 10:43:49;;;;;;;17.77;8.73;;;;;;;5.75;nan;100260.47;5028907;28;20037;-75
2022/01/30 10:46:17;;;;;;;13.98;6.68;;;;;;;5.99;nan;100260.97;5026381;28;20092;-74
2022/01/30 10:48:50;;;;;;;14.10;6.68;;;;;;;6.01;nan;100244.09;5027597;28;20026;-75
2022/01/30 10:51:16;;;;;;;16.52;6.95;;;;;;;6.28;nan;100254.59;5027882;28;20034;-74
2022/01/30 10:53:42;;;;;;;16.10;7.68;;;;;;;6.39;nan;100248.72;5010346;28;20176;-75
2022/01/30 10:56:21;;;;;;;18.08;7.55;;;;;;;6.60;nan;100252.97;5027940;28;20133;-74
2022/01/30 10:59:06;;;;;;;19.15;7.75;;;;;;;6.73;nan;100263.44;5023903;28;20080;-75
2022/01/30 11:01:32;;;;;;;14.45;7.88;;;;;;;6.86;nan;100259.19;5028215;28;20041;-76
2022/01/30 11:04:00;;;;;;;19.95;8.60;;;;;;;6.89;nan;100249.09;5026337;28;20033;-75
2022/01/30 11:06:28;;;;;;;17.42;8.50;;;;;;;6.95;nan;100242.25;5024246;28;20557;-75
2022/01/30 11:08:54;;;;;;;19.67;8.02;;;;;;;7.14;nan;100257.13;5008672;28;20514;-76
2022/01/30 11:19:17;;;;;;;16.27;8.23;;;;;;;7.49;nan;100237.66;5027853;28;20491;-75
2022/01/30 11:21:47;;;;;;;17.35;8.50;;;;;;;7.59;nan;100245.84;5029159;28;20037;-75
2022/01/30 11:24:14;;;;;;;21.75;9.40;;;;;;;7.59;nan;100227.50;4996447;28;20526;-75
2022/01/30 11:26:40;;;;;;;13.27;7.30;;;;;;;7.67;nan;100214.19;5011168;28;20119;-76
2022/01/30 11:29:24;;;;;;;18.25;7.95;;;;;;;7.79;nan;100209.88;5029459;28;20052;-76
2022/01/30 11:31:50;;;;;;;16.17;7.60;;;;;;;7.87;nan;100200.94;5031779;28;20037;-73
2022/01/30 11:34:16;;;;;;;14.73;7.10;;;;;;;7.88;nan;100211.25;5030142;28;20053;-74
2022/01/30 11:36:44;;;;;;;15.30;6.88;;;;;;;8.00;nan;100207.94;5012536;28;20040;-74
2022/01/30 11:39:15;;;;;;;15.15;7.38;;;;;;;8.04;nan;100204.66;5011695;28;20368;-74
2022/01/30 11:41:41;;;;;;;14.75;7.05;;;;;;;8.15;nan;100207.63;5010931;28;20039;-75
2022/01/30 11:44:18;;;;;;;13.75;7.40;;;;;;;8.29;nan;100217.81;5029325;28;20025;-76
2022/01/30 11:47:16;;;;;;;13.45;6.22;;;;;;;8.24;nan;100196.66;5028479;28;20049;-77
2022/01/30 11:50:05;;;;;;;13.95;6.20;;;;;;;8.34;nan;100190.94;5021226;28;20036;-75
2022/01/30 11:53:06;;;;;;;16.30;6.85;;;;;;;8.57;nan;100200.84;5026365;28;20113;-76
2022/01/30 11:55:41;;;;;;;12.48;5.60;;;;;;;8.70;nan;100199.91;5027959;28;20037;-74
2022/01/30 11:58:07;;;;;;;13.00;6.72;;;;;;;8.78;nan;100196.19;5011118;28;20068;-74
2022/01/30 12:00:38;;;;;;;14.10;6.20;;;;;;;8.84;nan;100185.63;5010118;28;20033;-74
2022/01/30 12:03:21;;;;;;;14.73;6.22;;;;;;;8.96;nan;100190.16;5009530;28;20049;-73
2022/01/30 12:05:47;;;;;;;14.45;6.32;;;;;;;9.03;nan;100188.28;5024912;28;20128;-74
2022/01/30 12:08:50;;;;;;;10.00;5.50;;;;;;;9.08;nan;100191.03;5008590;28;20439;-74
2022/01/30 12:11:34;;;;;;;14.75;6.15;;;;;;;9.12;nan;100177.25;4997605;28;20530;-74
2022/01/30 12:14:04;;;;;;;10.30;5.30;;;;;;;9.06;nan;100167.59;5023251;28;20033;-75
2022/01/30 12:16:49;;;;;;;11.93;5.90;;;;;;;9.01;nan;100164.84;5008790;28;20061;-74
2022/01/30 12:19:42;;;;;;;11.40;5.80;;;;;;;9.01;nan;100164.84;5026976;28;20042;-74
2022/01/30 12:22:16;;;;;;;17.17;5.95;;;;;;;9.05;nan;100175.69;5025621;28;20065;-74
2022/01/30 12:24:42;;;;;;;13.80;6.20;;;;;;;9.03;nan;100169.88;5007745;28;20033;-75
2022/01/30 12:27:08;;;;;;;14.05;6.18;;;;;;;9.02;nan;100166.44;5010737;28;20026;-75
2022/01/30 12:29:45;;;;;;;10.90;5.47;;;;;;;8.89;nan;100141.13;5028996;28;20033;-75
2022/01/30 12:32:22;;;;;;;9.70;5.55;;;;;;;9.00;nan;100152.72;5027676;28;20038;-79
2022/01/30 12:34:57;;;;;;;8.48;4.78;;;;;;;8.99;nan;100168.72;5013703;28;20372;-75
2022/01/30 12:37:24;;;;;;;14.40;4.80;;;;;;;8.93;nan;100165.13;5012799;28;20460;-75
2022/01/30 12:39:50;;;;;;;9.13;4.88;;;;;;;8.86;nan;100159.13;5032875;28;20034;-77